Time,TemperatureF,DewpointF,PressureIn,WindDirection,WindDirectionDegrees,WindSpeedMPH,WindSpeedGustMPH,Humidity,HourlyPrecipIn,Conditions,Clouds,dailyrainin,SoftwareType,DateUTC
2013-05-14 00:09:00,47.0,33.0,30.09,South,190,0.0,-999.0,58,-99.99,,,0.00,weatherlink.com 1.10,2013-05-14 04:09:00,
2013-05-14 00:24:00,46.9,33.0,30.09,South,190,0.0,-999.0,59,-99.99,,,0.00,weatherlink.com 1.10,2013-05-14 04:24:00,
2013-05-14 00:39:00,47.0,34.0,30.09,South,190,0.0,-999.0,60,-99.99,,,0.00,weatherlink.com 1.10,2013-05-14 04:39:00,
2013-05-14 00:54:00,46.3,34.0,30.09,South,190,0.0,-999.0,62,-99.99,,,0.00,weatherlink.com 1.10,2013-05-14 04:54:00,
2013-05-14 01:09:00,45.6,34.0,30.08,South,190,0.0,-999.0,63,-99.99,,,0.00,weatherlink.com 1.10,2013-05-14 05:09:00,
2013-05-14 01:24:00,45.3,34.0,30.07,South,190,0.0,-999.0,64,-99.99,,,0.00,weatherlink.com 1.10,2013-05-14 05:24:00,
2013-05-14 01:40:00,44.8,34.0,30.07,South,190,0.0,-999.0,66,-99.99,,,0.00,weatherlink.com 1.10,2013-05-14 05:40:00,
2013-05-14 01:55:00,44.7,34.0,30.07,South,190,1.0,-999.0,66,-99.99,,,0.00,weatherlink.com 1.10,2013-05-14 05:55:00,
2013-05-14 02:10:00,44.8,34.0,30.06,South,190,0.0,-999.0,66,-99.99,,,0.00,weatherlink.com 1.10,2013-05-14 06:10:00,
2013-05-14 02:25:00,44.9,34.0,30.06,South,190,0.0,-999.0,66,-99.99,,,0.00,weatherlink.com 1.10,2013-05-14 06:25:00,
2013-05-14 02:40:00,44.8,34.0,30.06,South,190,0.0,-999.0,66,-99.99,,,0.00,weatherlink.com 1.10,2013-05-14 06:40:00,
2013-05-14 02:55:00,44.4,34.0,30.06,South,190,0.0,-999.0,67,-99.99,,,0.00,weatherlink.com 1.10,2013-05-14 06:55:00,
2013-05-14 03:10:00,44.3,34.0,30.05,South,190,0.0,-999.0,68,-99.99,,,0.00,weatherlink.com 1.10,2013-05-14 07:10:00,
2013-05-14 03:25:00,44.3,34.0,30.05,South,190,0.0,-999.0,68,-99.99,,,0.00,weatherlink.com 1.10,2013-05-14 07:25:00,
2013-05-14 03:40:00,44.4,35.0,30.05,South,190,0.0,-999.0,69,-99.99,,,0.00,weatherlink.com 1.10,2013-05-14 07:40:00,
2013-05-14 03:55:00,44.6,35.0,30.04,South,187,0.0,-999.0,68,-99.99,,,0.00,weatherlink.com 1.10,2013-05-14 07:55:00,
2013-05-14 04:10:00,45.0,35.0,30.05,South,187,0.0,-999.0,68,-99.99,,,0.00,weatherlink.com 1.10,2013-05-14 08:10:00,
2013-05-14 04:25:00,45.3,34.0,30.06,South,187,0.0,-999.0,66,-99.99,,,0.00,weatherlink.com 1.10,2013-05-14 08:25:00,
2013-05-14 04:40:00,45.6,34.0,30.05,South,187,0.0,-999.0,64,-99.99,,,0.00,weatherlink.com 1.10,2013-05-14 08:40:00,
2013-05-14 04:55:00,45.7,33.0,30.05,South,188,0.0,-999.0,62,-99.99,,,0.00,weatherlink.com 1.10,2013-05-14 08:55:00,
2013-05-14 05:10:00,45.8,33.0,30.05,South,187,0.0,-999.0,62,-99.99,,,0.00,weatherlink.com 1.10,2013-05-14 09:10:00,
2013-05-14 05:25:00,45.7,33.0,30.05,South,187,0.0,-999.0,61,-99.99,,,0.00,weatherlink.com 1.10,2013-05-14 09:25:00,
2013-05-14 05:40:00,45.5,33.0,30.04,South,187,0.0,-999.0,63,-99.99,,,0.00,weatherlink.com 1.10,2013-05-14 09:40:00,
2013-05-14 05:55:00,45.5,33.0,30.03,South,187,0.0,-999.0,62,-99.99,,,0.00,weatherlink.com 1.10,2013-05-14 09:55:00,
2013-05-14 06:10:00,45.7,33.0,30.04,South,187,0.0,-999.0,62,-99.99,,,0.00,weatherlink.com 1.10,2013-05-14 10:10:00,
2013-05-14 06:25:00,45.9,33.0,30.04,South,188,0.0,-999.0,62,-99.99,,,0.00,weatherlink.com 1.10,2013-05-14 10:25:00,
2013-05-14 06:40:00,46.0,34.0,30.03,South,186,1.0,-999.0,63,-99.99,,,0.00,weatherlink.com 1.10,2013-05-14 10:40:00,
2013-05-14 06:55:00,46.0,34.0,30.02,South,187,0.0,-999.0,64,-99.99,,,0.00,weatherlink.com 1.10,2013-05-14 10:55:00,
2013-05-14 07:10:00,46.2,35.0,30.02,South,187,0.0,-999.0,65,-99.99,,,0.00,weatherlink.com 1.10,2013-05-14 11:10:00,
2013-05-14 07:25:00,46.3,35.0,30.01,South,187,2.0,-999.0,65,-99.99,,,0.00,weatherlink.com 1.10,2013-05-14 11:25:00,
2013-05-14 07:40:00,46.9,35.0,30.00,ESE,119,0.0,-999.0,64,-99.99,,,0.00,weatherlink.com 1.10,2013-05-14 11:40:00,
2013-05-14 07:55:00,47.5,36.0,29.99,ESE,119,0.0,-999.0,64,-99.99,,,0.00,weatherlink.com 1.10,2013-05-14 11:55:00,
2013-05-14 08:25:00,49.2,38.0,29.98,SE,125,4.0,-999.0,66,-99.99,,,0.00,weatherlink.com 1.10,2013-05-14 12:25:00,
2013-05-14 08:40:00,50.3,38.0,29.98,ESE,115,1.0,-999.0,64,-99.99,,,0.00,weatherlink.com 1.10,2013-05-14 12:40:00,
2013-05-14 08:55:00,51.7,39.0,29.97,ESE,118,4.0,-999.0,62,-99.99,,,0.00,weatherlink.com 1.10,2013-05-14 12:55:00,
2013-05-14 09:10:00,53.6,39.0,29.97,SE,134,10.0,-999.0,59,-99.99,,,0.00,weatherlink.com 1.10,2013-05-14 13:10:00,
2013-05-14 09:25:00,54.1,39.0,29.97,ESE,116,5.0,-999.0,57,-99.99,,,0.00,weatherlink.com 1.10,2013-05-14 13:25:00,
2013-05-14 09:40:00,55.1,39.0,29.96,SE,136,4.0,-999.0,56,-99.99,,,0.00,weatherlink.com 1.10,2013-05-14 13:40:00,
2013-05-14 09:55:00,55.9,40.0,29.95,SE,144,2.0,-999.0,55,-99.99,,,0.00,weatherlink.com 1.10,2013-05-14 13:55:00,
2013-05-14 10:10:00,56.0,39.0,29.94,SE,137,4.0,-999.0,53,-99.99,,,0.00,weatherlink.com 1.10,2013-05-14 14:10:00,
2013-05-14 10:26:00,56.0,39.0,29.92,SE,130,1.0,-999.0,53,-99.99,,,0.00,weatherlink.com 1.10,2013-05-14 14:26:00,
2013-05-14 10:41:00,56.8,40.0,29.92,ESE,113,3.0,-999.0,53,-99.99,,,0.00,weatherlink.com 1.10,2013-05-14 14:41:00,
2013-05-14 10:56:00,57.7,40.0,29.90,ESE,119,5.0,-999.0,53,-99.99,,,0.00,weatherlink.com 1.10,2013-05-14 14:56:00,
2013-05-14 11:11:00,58.3,39.0,29.91,East,82,5.0,-999.0,49,-99.99,,,0.00,weatherlink.com 1.10,2013-05-14 15:11:00,
2013-05-14 11:26:00,58.6,39.0,29.89,SSE,147,4.0,-999.0,49,-99.99,,,0.00,weatherlink.com 1.10,2013-05-14 15:26:00,
2013-05-14 11:41:00,59.9,40.0,29.88,ESE,103,3.0,-999.0,49,-99.99,,,0.00,weatherlink.com 1.10,2013-05-14 15:41:00,
2013-05-14 11:56:00,61.0,40.0,29.88,ESE,107,2.0,-999.0,47,-99.99,,,0.00,weatherlink.com 1.10,2013-05-14 15:56:00,
2013-05-14 12:11:00,61.0,41.0,29.86,East,82,1.0,-999.0,48,-99.99,,,0.00,weatherlink.com 1.10,2013-05-14 16:11:00,
2013-05-14 12:26:00,62.3,42.0,29.85,East,86,3.0,-999.0,47,-99.99,,,0.00,weatherlink.com 1.10,2013-05-14 16:26:00,
2013-05-14 12:41:00,62.7,42.0,29.85,SE,130,4.0,-999.0,47,-99.99,,,0.00,weatherlink.com 1.10,2013-05-14 16:41:00,
2013-05-14 12:56:00,64.0,43.0,29.85,SE,128,1.0,-999.0,46,-99.99,,,0.00,weatherlink.com 1.10,2013-05-14 16:56:00,
2013-05-14 13:11:00,64.4,43.0,29.85,East,96,4.0,-999.0,46,-99.99,,,0.00,weatherlink.com 1.10,2013-05-14 17:11:00,
2013-05-14 13:26:00,66.3,43.0,29.85,SE,133,8.0,-999.0,43,-99.99,,,0.00,weatherlink.com 1.10,2013-05-14 17:26:00,
2013-05-14 13:41:00,66.5,43.0,29.83,East,100,8.0,-999.0,43,-99.99,,,0.00,weatherlink.com 1.10,2013-05-14 17:41:00,
2013-05-14 13:56:00,66.4,45.0,29.83,East,87,5.0,-999.0,46,-99.99,,,0.00,weatherlink.com 1.10,2013-05-14 17:56:00,
2013-05-14 14:11:00,67.2,46.0,29.82,East,86,6.0,-999.0,47,-99.99,,,0.00,weatherlink.com 1.10,2013-05-14 18:11:00,
2013-05-14 14:26:00,67.4,45.0,29.80,East,83,4.0,-999.0,45,-99.99,,,0.00,weatherlink.com 1.10,2013-05-14 18:26:00,
2013-05-14 14:41:00,68.4,47.0,29.80,East,88,3.0,-999.0,46,-99.99,,,0.00,weatherlink.com 1.10,2013-05-14 18:41:00,
2013-05-14 14:56:00,69.2,46.0,29.79,ESE,102,3.0,-999.0,44,-99.99,,,0.00,weatherlink.com 1.10,2013-05-14 18:56:00,
2013-05-14 15:11:00,70.1,48.0,29.78,East,83,2.0,-999.0,45,-99.99,,,0.00,weatherlink.com 1.10,2013-05-14 19:11:00,
2013-05-14 15:26:00,71.6,47.0,29.78,SSE,150,7.0,-999.0,42,-99.99,,,0.00,weatherlink.com 1.10,2013-05-14 19:26:00,
2013-05-14 15:42:00,72.3,47.0,29.77,SE,139,7.0,-999.0,40,-99.99,,,0.00,weatherlink.com 1.10,2013-05-14 19:42:00,
2013-05-14 15:57:00,73.1,47.0,29.77,SE,146,3.0,-999.0,39,-99.99,,,0.00,weatherlink.com 1.10,2013-05-14 19:57:00,
2013-05-14 16:12:00,73.9,49.0,29.76,ESE,111,6.0,-999.0,41,-99.99,,,0.00,weatherlink.com 1.10,2013-05-14 20:12:00,
2013-05-14 16:27:00,73.9,50.0,29.77,ESE,111,1.0,-999.0,43,-99.99,,,0.00,weatherlink.com 1.10,2013-05-14 20:27:00,
2013-05-14 16:42:00,72.8,50.0,29.76,ENE,78,3.0,-999.0,44,-99.99,,,0.00,weatherlink.com 1.10,2013-05-14 20:42:00,
2013-05-14 16:57:00,72.8,50.0,29.75,ENE,73,2.0,-999.0,44,-99.99,,,0.00,weatherlink.com 1.10,2013-05-14 20:57:00,
2013-05-14 17:12:00,72.4,49.0,29.75,East,83,3.0,-999.0,44,-99.99,,,0.00,weatherlink.com 1.10,2013-05-14 21:12:00,
2013-05-14 17:27:00,72.0,49.0,29.75,SE,140,0.0,-999.0,45,-99.99,,,0.00,weatherlink.com 1.10,2013-05-14 21:27:00,
2013-05-14 17:42:00,72.0,49.0,29.74,East,92,0.0,-999.0,45,-99.99,,,0.00,weatherlink.com 1.10,2013-05-14 21:42:00,
2013-05-14 17:57:00,72.0,49.0,29.73,East,86,0.0,-999.0,45,-99.99,,,0.00,weatherlink.com 1.10,2013-05-14 21:57:00,
2013-05-14 18:12:00,71.6,50.0,29.74,ESE,113,0.0,-999.0,46,-99.99,,,0.00,weatherlink.com 1.10,2013-05-14 22:12:00,
2013-05-14 18:27:00,71.6,50.0,29.73,ESE,113,0.0,-999.0,46,-99.99,,,0.00,weatherlink.com 1.10,2013-05-14 22:27:00,
2013-05-14 18:42:00,71.7,50.0,29.72,ESE,122,1.0,-999.0,47,-99.99,,,0.00,weatherlink.com 1.10,2013-05-14 22:42:00,
2013-05-14 18:57:00,71.7,50.0,29.71,ENE,65,1.0,-999.0,46,-99.99,,,0.00,weatherlink.com 1.10,2013-05-14 22:57:00,
2013-05-14 19:12:00,71.5,50.0,29.72,NE,42,0.0,-999.0,46,-99.99,,,0.00,weatherlink.com 1.10,2013-05-14 23:12:00,
2013-05-14 19:27:00,71.4,50.0,29.72,NE,47,0.0,-999.0,47,-99.99,,,0.00,weatherlink.com 1.10,2013-05-14 23:27:00,
2013-05-14 19:42:00,71.2,50.0,29.72,NE,47,0.0,-999.0,48,-99.99,,,0.00,weatherlink.com 1.10,2013-05-14 23:42:00,
2013-05-14 19:57:00,70.8,50.0,29.72,NE,47,0.0,-999.0,48,-99.99,,,0.00,weatherlink.com 1.10,2013-05-14 23:57:00,
2013-05-14 20:12:00,70.1,50.0,29.72,NE,47,1.0,-999.0,49,-99.99,,,0.00,weatherlink.com 1.10,2013-05-15 00:12:00,
2013-05-14 20:27:00,68.5,49.0,29.72,NE,34,5.0,-999.0,50,-99.99,,,0.00,weatherlink.com 1.10,2013-05-15 00:27:00,
2013-05-14 20:42:00,65.5,48.0,29.73,North,1,0.0,-999.0,53,-99.99,,,0.00,weatherlink.com 1.10,2013-05-15 00:42:00,
2013-05-14 20:57:00,64.0,48.0,29.72,NNE,19,0.0,-999.0,56,-99.99,,,0.00,weatherlink.com 1.10,2013-05-15 00:57:00,
2013-05-14 21:12:00,62.6,47.0,29.72,NNE,13,1.0,-999.0,58,-99.99,,,0.00,weatherlink.com 1.10,2013-05-15 01:12:00,
2013-05-14 21:27:00,61.6,47.0,29.72,North,1,0.0,-999.0,60,-99.99,,,0.00,weatherlink.com 1.10,2013-05-15 01:27:00,
2013-05-14 21:42:00,60.8,47.0,29.72,NNE,15,0.0,-999.0,61,-99.99,,,0.00,weatherlink.com 1.10,2013-05-15 01:42:00,
2013-05-14 21:57:00,60.1,47.0,29.71,North,11,0.0,-999.0,63,-99.99,,,0.00,weatherlink.com 1.10,2013-05-15 01:57:00,
2013-05-14 22:12:00,59.6,47.0,29.70,North,11,0.0,-999.0,64,-99.99,,,0.00,weatherlink.com 1.10,2013-05-15 02:12:00,
2013-05-14 22:27:00,59.2,47.0,29.69,North,11,1.0,-999.0,65,-99.99,,,0.00,weatherlink.com 1.10,2013-05-15 02:27:00,
2013-05-14 22:42:00,59.0,48.0,29.71,North,6,0.0,-999.0,66,-99.99,,,0.00,weatherlink.com 1.10,2013-05-15 02:42:00,
2013-05-14 22:57:00,58.9,48.0,29.71,North,6,0.0,-999.0,67,-99.99,,,0.00,weatherlink.com 1.10,2013-05-15 02:57:00,
2013-05-14 23:12:00,58.7,48.0,29.73,NNW,338,2.0,-999.0,67,-99.99,,,0.00,weatherlink.com 1.10,2013-05-15 03:12:00,
2013-05-14 23:27:00,58.8,49.0,29.72,NNW,333,0.0,-999.0,69,-99.99,,,0.00,weatherlink.com 1.10,2013-05-15 03:27:00,
2013-05-14 23:42:00,57.5,50.0,29.71,NNW,338,0.0,-999.0,77,-99.99,,,0.00,weatherlink.com 1.10,2013-05-15 03:42:00,
2013-05-14 23:57:00,57.0,50.0,29.71,NNW,335,0.0,-999.0,78,-99.99,,,0.00,weatherlink.com 1.10,2013-05-15 03:57:00,